createdAt,value
2019-01-19T00:02:28.057Z,100798.83
2019-01-19T00:05:38.982Z,100800.74
2019-01-19T00:08:20.794Z,100800.17
2019-01-19T00:11:41.088Z,100795.16
2019-01-19T00:14:19.213Z,100794.17
2019-01-19T00:17:22.693Z,100794.65
2019-01-19T00:20:37.800Z,100796.50
2019-01-19T00:23:24.863Z,100786.20
2019-01-19T00:26:36.948Z,100784.96
2019-01-19T00:29:13.429Z,100780.72
2019-01-19T00:32:08.668Z,100779.97
2019-01-19T00:34:57.473Z,100779.20
2019-01-19T00:37:42.188Z,100777.25
2019-01-19T00:41:05.759Z,100776.34
2019-01-19T00:43:43.146Z,100770.62
2019-01-19T00:47:04.064Z,100770.40
2019-01-19T00:49:56.819Z,100768.36
2019-01-19T00:52:35.709Z,100765.19
2019-01-19T00:55:50.880Z,100772.09
2019-01-19T00:58:40.543Z,100776.42
2019-01-19T01:01:55.098Z,100771.78
2019-01-19T01:04:49.022Z,100774.29
2019-01-19T01:07:59.893Z,100773.63
2019-01-19T01:10:45.318Z,100773.83
2019-01-19T01:13:56.244Z,100777.56
2019-01-19T01:16:45.668Z,100775.06
2019-01-19T01:20:09.895Z,100764.77
2019-01-19T01:23:00.179Z,100761.74
2019-01-19T01:25:55.703Z,100763.94
2019-01-19T01:29:19.718Z,100766.88
2019-01-19T01:32:00.628Z,100765.52
2019-01-19T01:35:05.459Z,100767.27
2019-01-19T01:38:32.717Z,100756.58
2019-01-19T01:41:37.729Z,100769.37
2019-01-19T01:45:00.551Z,100766.66
2019-01-19T01:48:03.014Z,100775.64
2019-01-19T01:50:55.563Z,100774.97
2019-01-19T01:54:05.943Z,100768.31
2019-01-19T01:56:33.419Z,100774.22
2019-01-19T01:59:45.083Z,100765.04
2019-01-19T02:02:30.520Z,100767.66
2019-01-19T02:05:40.159Z,100753.92
2019-01-19T02:08:45.658Z,100756.88
2019-01-19T02:11:35.795Z,100750.53
2019-01-19T02:14:33.934Z,100761.20
2019-01-19T02:17:37.440Z,100749.00
2019-01-19T02:20:21.808Z,100754.23
2019-01-19T02:23:12.443Z,100750.42
2019-01-19T02:26:26.153Z,100748.95
2019-01-19T02:29:47.493Z,100745.66
2019-01-19T02:32:44.439Z,100751.31
2019-01-19T02:35:49.670Z,100749.25
2019-01-19T02:38:32.304Z,100750.11
2019-01-19T02:41:47.690Z,100747.66
2019-01-19T02:45:07.617Z,100744.18
2019-01-19T02:48:32.719Z,100751.23
2019-01-19T02:51:25.934Z,100745.27
2019-01-19T02:54:25.678Z,100743.52
2019-01-19T02:57:21.168Z,100734.92
2019-01-19T03:00:57.592Z,100737.49
2019-01-19T03:03:54.695Z,100735.30
2019-01-19T03:06:54.163Z,100728.98
2019-01-19T03:09:58.064Z,100724.60
2019-01-19T03:12:43.818Z,100731.95
2019-01-19T03:15:41.209Z,100735.80
2019-01-19T03:18:53.718Z,100726.03
2019-01-19T03:21:40.730Z,100721.34
2019-01-19T03:24:42.859Z,100717.48
2019-01-19T03:27:27.045Z,100725.66
2019-01-19T03:30:31.177Z,100717.09
2019-01-19T03:33:46.468Z,100724.37
2019-01-19T03:36:44.578Z,100725.13
2019-01-19T03:39:43.559Z,100714.86
2019-01-19T03:42:37.074Z,100722.51
2019-01-19T03:45:40.616Z,100725.47
2019-01-19T03:48:43.693Z,100722.02
2019-01-19T03:51:43.174Z,100721.41
2019-01-19T03:54:33.131Z,100720.46
2019-01-19T03:57:19.684Z,100719.67
2019-01-19T04:00:18.408Z,100724.45
2019-01-19T04:03:20.818Z,100722.55
2019-01-19T04:06:17.017Z,100717.86
2019-01-19T04:09:27.869Z,100718.02
2019-01-19T04:12:20.600Z,100715.70
2019-01-19T04:15:12.529Z,100715.30
2019-01-19T04:18:22.984Z,100714.09
2019-01-19T04:21:26.871Z,100718.47
2019-01-19T04:23:59.129Z,100715.28
2019-01-19T04:26:34.004Z,100707.98
2019-01-19T04:29:01.489Z,100702.00
2019-01-19T04:31:28.861Z,100702.72
2019-01-19T04:33:56.816Z,100702.36
2019-01-19T04:36:24.503Z,100705.88
2019-01-19T04:38:52.139Z,100703.23
2019-01-19T04:41:19.599Z,100703.61
2019-01-19T04:43:46.990Z,100694.14
2019-01-19T04:46:14.734Z,100696.70
2019-01-19T04:48:42.570Z,100697.35
2019-01-19T04:51:10.028Z,100699.52
2019-01-19T04:53:37.421Z,100695.36
2019-01-19T04:56:04.994Z,100692.73
2019-01-19T04:58:32.413Z,100694.21
2019-01-19T05:01:04.374Z,100692.09
2019-01-19T05:03:31.777Z,100691.63
2019-01-19T05:05:59.448Z,100684.00
2019-01-19T05:08:26.860Z,100688.16
2019-01-19T05:10:54.339Z,100685.92
2019-01-19T05:13:21.754Z,100679.36
2019-01-19T05:15:49.216Z,100679.81
2019-01-19T05:18:17.098Z,100679.42
2019-01-19T05:20:44.555Z,100683.94
2019-01-19T05:23:11.957Z,100678.72
2019-01-19T05:25:39.393Z,100679.49
2019-01-19T05:28:06.778Z,100679.12
2019-01-19T05:30:34.242Z,100673.08
2019-01-19T05:33:01.624Z,100672.05
2019-01-19T05:35:29.398Z,100674.16
2019-01-19T05:37:56.869Z,100674.16
2019-01-19T05:40:24.338Z,100672.48
2019-01-19T05:42:51.724Z,100669.41
2019-01-19T05:45:19.209Z,100674.08
2019-01-19T05:47:46.633Z,100665.98
2019-01-19T05:50:21.630Z,100671.84
2019-01-19T05:52:49.026Z,100670.39
2019-01-19T05:55:16.492Z,100673.43
2019-01-19T05:57:44.153Z,100675.22
2019-01-19T06:00:14.579Z,100671.30
2019-01-19T06:02:41.999Z,100669.95
2019-01-19T06:05:09.669Z,100676.06
2019-01-19T06:07:37.628Z,100674.72
2019-01-19T06:10:06.357Z,100674.25
2019-01-19T06:12:33.838Z,100668.75
2019-01-19T06:15:03.139Z,100670.41
2019-01-19T06:17:32.329Z,100666.55
2019-01-19T06:19:59.739Z,100671.72
2019-01-19T06:22:27.234Z,100668.28
2019-01-19T06:24:57.707Z,100672.97
2019-01-19T06:27:25.204Z,100675.53
2019-01-19T06:29:52.629Z,100672.06
2019-01-19T06:32:20.694Z,100673.76
2019-01-19T06:34:48.459Z,100671.36
2019-01-19T06:37:15.920Z,100673.34
2019-01-19T06:39:43.375Z,100672.09
2019-01-19T06:42:10.838Z,100666.42
2019-01-19T06:44:40.804Z,100662.11
2019-01-19T06:47:08.269Z,100660.84
2019-01-19T06:49:35.678Z,100662.40
2019-01-19T06:52:03.278Z,100661.58
2019-01-19T06:54:30.788Z,100663.38
2019-01-19T06:56:58.259Z,100665.45
2019-01-19T06:59:25.660Z,100663.31
2019-01-19T07:01:53.242Z,100664.15
2019-01-19T07:04:30.832Z,100672.31
2019-01-19T07:07:02.569Z,100678.69
2019-01-19T07:09:28.862Z,100674.25
2019-01-19T07:11:56.533Z,100674.58
2019-01-19T07:14:23.974Z,100678.75
2019-01-19T07:16:51.476Z,100674.50
2019-01-19T07:19:18.838Z,100679.95
2019-01-19T07:21:46.304Z,100681.77
2019-01-19T07:24:13.717Z,100685.12
2019-01-19T07:26:41.174Z,100687.22
2019-01-19T07:29:08.599Z,100687.75
2019-01-19T07:31:36.060Z,100684.72
2019-01-19T07:34:03.719Z,100688.06
2019-01-19T07:36:31.229Z,100684.64
2019-01-19T07:38:58.658Z,100688.58
2019-01-19T07:41:26.119Z,100689.28
2019-01-19T07:44:13.820Z,100696.09
2019-01-19T07:46:47.128Z,100694.55
2019-01-19T07:49:15.824Z,100690.86
2019-01-19T07:51:47.329Z,100695.61
2019-01-19T07:54:14.925Z,100693.12
2019-01-19T07:56:42.403Z,100692.62
2019-01-19T07:59:10.134Z,100703.91
2019-01-19T08:01:52.534Z,100703.14
2019-01-19T08:04:23.079Z,100695.25
2019-01-19T08:06:52.161Z,100688.91
2019-01-19T08:09:19.708Z,100692.27
2019-01-19T08:11:47.184Z,100696.39
2019-01-19T08:14:17.137Z,100695.11
2019-01-19T08:16:47.734Z,100694.87
2019-01-19T08:19:15.249Z,100698.13
2019-01-19T08:21:42.713Z,100698.05
2019-01-19T08:24:10.315Z,100697.53
2019-01-19T08:26:37.741Z,100702.23
2019-01-19T08:29:05.339Z,100703.00
2019-01-19T08:31:32.779Z,100704.73
2019-01-19T08:34:00.221Z,100702.72
2019-01-19T08:36:28.009Z,100702.34
2019-01-19T08:38:55.483Z,100709.64
2019-01-19T08:41:22.911Z,100710.83
2019-01-19T08:43:55.526Z,100703.25
2019-01-19T08:46:22.965Z,100704.14
2019-01-19T08:48:50.519Z,100699.09
2019-01-19T08:51:17.918Z,100701.05
2019-01-19T08:53:45.466Z,100709.86
2019-01-19T08:56:12.898Z,100706.20
2019-01-19T08:58:40.404Z,100707.44
2019-01-19T09:01:07.919Z,100700.69
2019-01-19T09:03:35.419Z,100701.00
2019-01-19T09:06:02.965Z,100702.95
2019-01-19T09:08:30.423Z,100702.66
2019-01-19T09:10:57.854Z,100703.39
2019-01-19T09:13:25.337Z,100698.79
2019-01-19T09:15:56.359Z,100695.38
2019-01-19T09:18:23.815Z,100697.67
2019-01-19T09:20:51.353Z,100702.02
2019-01-19T09:23:29.275Z,100691.88
2019-01-19T09:25:57.693Z,100685.82
2019-01-19T09:28:25.154Z,100682.34
2019-01-19T09:30:53.139Z,100681.88
2019-01-19T09:33:21.202Z,100684.61
2019-01-19T09:35:49.050Z,100689.15
2019-01-19T09:38:20.137Z,100682.02
2019-01-19T09:40:48.588Z,100688.88
2019-01-19T09:43:16.218Z,100685.16
2019-01-19T09:45:43.599Z,100686.84
2019-01-19T09:48:11.063Z,100689.67
2019-01-19T09:50:39.238Z,100691.20
2019-01-19T09:53:06.884Z,100688.37
2019-01-19T09:55:34.305Z,100690.23
2019-01-19T09:58:01.788Z,100687.72
2019-01-19T10:00:35.632Z,100693.63
2019-01-19T10:02:58.739Z,100695.81
2019-01-19T10:05:26.437Z,100691.13
2019-01-19T10:07:54.183Z,100697.48
2019-01-19T10:10:21.649Z,100698.09
2019-01-19T10:12:49.173Z,100697.52
2019-01-19T10:15:16.739Z,100689.88
2019-01-19T10:17:44.378Z,100697.97
2019-01-19T10:20:14.527Z,100685.85
2019-01-19T10:22:41.981Z,100687.92
2019-01-19T10:25:10.456Z,100690.61
2019-01-19T10:27:37.886Z,100684.06
2019-01-19T10:30:15.185Z,100678.22
2019-01-19T10:32:42.652Z,100686.22
2019-01-19T10:35:10.791Z,100683.03
2019-01-19T10:37:38.290Z,100687.58
2019-01-19T10:40:06.955Z,100681.78
2019-01-19T10:42:34.521Z,100679.97
2019-01-19T10:45:01.926Z,100676.19
2019-01-19T10:47:29.371Z,100669.66
2019-01-19T10:49:56.830Z,100670.38
2019-01-19T10:52:25.966Z,100678.40
2019-01-19T10:54:53.643Z,100677.39
2019-01-19T10:57:21.055Z,100670.20
2019-01-19T10:59:48.567Z,100658.27
2019-01-19T11:02:16.176Z,100672.23
2019-01-19T11:04:43.731Z,100661.90
2019-01-19T11:07:11.192Z,100668.36
2019-01-19T11:09:39.060Z,100656.59
2019-01-19T11:12:06.451Z,100658.13
2019-01-19T11:14:34.376Z,100647.55
2019-01-19T11:17:01.821Z,100642.17
2019-01-19T11:19:29.495Z,100645.34
2019-01-19T11:21:56.926Z,100638.75
2019-01-19T11:24:24.410Z,100635.32
2019-01-19T11:26:51.805Z,100622.44
2019-01-19T11:29:19.246Z,100612.43
2019-01-19T11:31:46.636Z,100608.33
2019-01-19T11:34:14.121Z,100607.38
2019-01-19T11:36:41.891Z,100607.80
2019-01-19T11:39:09.356Z,100603.36
2019-01-19T11:41:39.495Z,100593.89
2019-01-19T11:44:22.266Z,100589.34
2019-01-19T11:46:59.623Z,100586.56
2019-01-19T11:49:29.350Z,100569.41
2019-01-19T11:53:04.815Z,100563.73
2019-01-19T11:55:46.044Z,100564.25
2019-01-19T11:58:09.531Z,100555.40
2019-01-19T12:00:38.582Z,100563.38
2019-01-19T12:03:11.726Z,100553.72
2019-01-19T12:05:39.626Z,100562.83
2019-01-19T12:08:08.131Z,100552.27
2019-01-19T12:10:35.666Z,100550.77
2019-01-19T12:13:03.141Z,100547.34
2019-01-19T12:15:30.710Z,100559.20
2019-01-19T12:17:58.216Z,100545.64
2019-01-19T12:20:32.005Z,100534.12
2019-01-19T12:22:59.438Z,100542.46
2019-01-19T12:25:27.035Z,100533.66
2019-01-19T12:27:54.433Z,100536.70
2019-01-19T12:30:24.047Z,100530.73
2019-01-19T12:32:51.460Z,100533.41
2019-01-19T12:35:18.916Z,100526.23
2019-01-19T12:37:46.448Z,100526.61
2019-01-19T12:40:15.595Z,100527.61
2019-01-19T12:42:44.145Z,100526.02
2019-01-19T12:45:15.151Z,100518.37
2019-01-19T12:47:42.550Z,100509.65
2019-01-19T12:50:14.626Z,100511.45
2019-01-19T12:52:42.176Z,100503.55
2019-01-19T12:55:09.925Z,100506.56
2019-01-19T12:57:37.421Z,100504.31
2019-01-19T13:00:08.664Z,100497.71
2019-01-19T13:02:36.085Z,100497.76
2019-01-19T13:05:05.840Z,100501.84
2019-01-19T13:07:33.217Z,100502.64
2019-01-19T13:10:31.230Z,100501.47
2019-01-19T13:13:05.525Z,100496.71
2019-01-19T13:16:32.505Z,100501.55
2019-01-19T13:19:41.853Z,100501.43
2019-01-19T13:22:38.916Z,100496.54
2019-01-19T13:25:35.905Z,100493.63
2019-01-19T13:28:50.196Z,100488.66
2019-01-19T13:31:50.459Z,100490.54
2019-01-19T13:34:59.012Z,100487.28
2019-01-19T13:37:54.331Z,100492.95
2019-01-19T13:40:52.135Z,100488.44
2019-01-19T13:43:51.235Z,100488.20
2019-01-19T13:46:43.901Z,100484.31
2019-01-19T13:50:14.268Z,100477.10
2019-01-19T13:53:21.408Z,100470.05
2019-01-19T13:56:33.656Z,100471.34
2019-01-19T13:59:43.600Z,100461.95
2019-01-19T14:02:43.037Z,100465.78
2019-01-19T14:05:49.415Z,100468.75
2019-01-19T14:08:58.892Z,100461.35
2019-01-19T14:12:03.955Z,100455.27
2019-01-19T14:14:39.076Z,100452.92
2019-01-19T14:17:32.650Z,100449.09
2019-01-19T14:20:10.010Z,100455.10
2019-01-19T14:23:13.845Z,100448.04
2019-01-19T14:26:25.655Z,100437.74
2019-01-19T14:29:30.880Z,100436.64
2019-01-19T14:32:35.795Z,100436.45
2019-01-19T14:35:26.981Z,100434.06
2019-01-19T14:38:57.392Z,100432.77
2019-01-19T14:42:02.290Z,100436.14
2019-01-19T14:45:03.915Z,100429.80
2019-01-19T14:48:18.977Z,100427.55
2019-01-19T14:51:43.260Z,100424.63
2019-01-19T14:54:50.726Z,100423.61
2019-01-19T14:58:01.991Z,100414.64
2019-01-19T15:00:52.149Z,100418.90
2019-01-19T15:03:48.976Z,100419.93
2019-01-19T15:06:34.776Z,100422.10
2019-01-19T15:09:42.230Z,100420.81
2019-01-19T15:12:58.920Z,100424.23
2019-01-19T15:15:50.686Z,100433.89
2019-01-19T15:19:15.290Z,100430.81
2019-01-19T15:22:09.025Z,100427.55
2019-01-19T15:25:14.242Z,100433.91
2019-01-19T15:28:32.525Z,100416.37
2019-01-19T15:31:39.247Z,100416.27
2019-01-19T15:38:45.242Z,100411.88
2019-01-19T15:41:52.976Z,100397.90
2019-01-19T15:50:05.531Z,100396.77
2019-01-19T15:53:20.466Z,100388.59
2019-01-19T15:56:29.611Z,100390.72
2019-01-19T15:59:18.376Z,100379.59
2019-01-19T16:02:26.381Z,100389.52
2019-01-19T16:05:30.857Z,100391.83
2019-01-19T16:08:32.897Z,100385.63
2019-01-19T16:11:26.204Z,100385.70
2019-01-19T16:14:46.782Z,100387.61
2019-01-19T16:17:57.888Z,100391.66
2019-01-19T16:21:22.096Z,100400.88
2019-01-19T16:24:30.336Z,100395.65
2019-01-19T16:27:29.851Z,100394.81
2019-01-19T16:30:48.026Z,100396.17
2019-01-19T16:33:24.986Z,100400.13
2019-01-19T16:36:23.141Z,100394.13
2019-01-19T16:39:30.375Z,100393.02
2019-01-19T16:42:39.413Z,100388.83
2019-01-19T16:45:42.409Z,100397.83
2019-01-19T16:48:43.856Z,100389.29
2019-01-19T16:51:48.781Z,100393.37
2019-01-19T16:54:46.266Z,100400.42
2019-01-19T16:57:41.343Z,100399.13
2019-01-19T17:00:49.551Z,100401.16
2019-01-19T17:04:10.406Z,100407.92
2019-01-19T17:07:20.771Z,100412.94
2019-01-19T17:10:03.088Z,100405.63
2019-01-19T17:13:08.342Z,100405.55
2019-01-19T17:15:59.692Z,100404.84
2019-01-19T17:18:52.782Z,100408.34
2019-01-19T17:22:03.896Z,100398.06
2019-01-19T17:25:16.212Z,100405.05
2019-01-19T17:28:29.522Z,100405.12
2019-01-19T17:31:37.641Z,100400.84
2019-01-19T17:34:31.632Z,100391.13
2019-01-19T17:37:26.972Z,100400.28
2019-01-19T17:40:41.446Z,100399.16
2019-01-19T17:43:34.282Z,100398.25
2019-01-19T17:46:18.227Z,100395.09
2019-01-19T17:49:00.836Z,100394.55
2019-01-19T17:52:28.341Z,100404.12
2019-01-19T17:55:39.712Z,100407.86
2019-01-19T17:58:33.696Z,100410.17
2019-01-19T18:01:40.646Z,100402.35
2019-01-19T18:04:36.721Z,100413.30
2019-01-19T18:07:49.647Z,100404.70
2019-01-19T18:10:30.142Z,100396.36
2019-01-19T18:13:30.433Z,100393.43
2019-01-19T18:16:54.738Z,100399.70
2019-01-19T18:19:44.635Z,100398.29
2019-01-19T18:22:50.028Z,100395.33
2019-01-19T18:26:17.752Z,100405.65
2019-01-19T18:29:30.682Z,100394.20
2019-01-19T18:32:06.571Z,100397.26
2019-01-19T18:35:08.884Z,100393.05
2019-01-19T18:37:53.972Z,100397.74
2019-01-19T18:40:40.522Z,100395.36
2019-01-19T18:44:00.878Z,100407.61
2019-01-19T18:47:34.241Z,100404.77
2019-01-19T18:50:43.972Z,100403.44
2019-01-19T18:53:58.961Z,100403.81
2019-01-19T18:57:04.243Z,100397.77
2019-01-19T19:00:17.628Z,100398.64
2019-01-19T19:03:33.495Z,100387.62
2019-01-19T19:06:31.536Z,100391.76
2019-01-19T19:09:44.421Z,100391.58
2019-01-19T19:12:53.766Z,100387.34
2019-01-19T19:16:02.531Z,100387.18
2019-01-19T19:19:14.506Z,100381.39
2019-01-19T19:22:35.728Z,100385.70
2019-01-19T19:25:47.328Z,100386.64
2019-01-19T19:28:49.700Z,100390.13
2019-01-19T19:31:38.556Z,100386.05
2019-01-19T19:34:34.781Z,100388.30
2019-01-19T19:37:37.693Z,100392.39
2019-01-19T19:40:55.561Z,100382.23
2019-01-19T19:44:10.042Z,100387.46
2019-01-19T19:47:22.615Z,100388.13
2019-01-19T19:50:39.105Z,100395.16
2019-01-19T19:53:13.767Z,100402.49
2019-01-19T19:55:44.350Z,100398.59
2019-01-19T19:58:20.731Z,100396.44
2019-01-19T20:00:56.647Z,100381.52
2019-01-19T20:03:45.837Z,100386.03
2019-01-19T20:06:19.891Z,100386.13
2019-01-19T20:08:58.991Z,100392.55
2019-01-19T20:11:34.811Z,100389.17
2019-01-19T20:14:05.256Z,100388.25
2019-01-19T20:16:44.207Z,100394.88
2019-01-19T20:19:12.653Z,100390.50
2019-01-19T20:24:51.920Z,100391.86
2019-01-19T20:27:26.156Z,100394.14
2019-01-19T20:29:54.717Z,100394.43
2019-01-19T20:32:35.615Z,100391.20
2019-01-19T20:35:13.056Z,100391.19
2019-01-19T20:37:54.150Z,100393.59
2019-01-19T20:40:36.376Z,100394.66
2019-01-19T20:43:20.785Z,100389.77
2019-01-19T20:46:20.916Z,100385.30
2019-01-19T20:49:01.242Z,100384.23
2019-01-19T20:51:35.295Z,100387.33
2019-01-19T20:54:12.177Z,100384.10
2019-01-19T20:57:00.920Z,100384.94
2019-01-19T20:59:42.227Z,100382.00
2019-01-19T21:02:21.476Z,100387.66
2019-01-19T21:04:58.797Z,100386.56
2019-01-19T21:07:37.176Z,100390.82
2019-01-19T21:10:16.422Z,100381.91
2019-01-19T21:12:56.845Z,100378.58
2019-01-19T21:15:39.041Z,100384.20
2019-01-19T21:18:06.782Z,100378.80
2019-01-19T21:20:53.265Z,100381.41
2019-01-19T21:23:42.450Z,100388.28
2019-01-19T21:26:53.010Z,100394.17
2019-01-19T21:29:42.204Z,100384.30
2019-01-19T21:32:44.266Z,100385.92
2019-01-19T21:35:12.167Z,100375.13
2019-01-19T21:38:16.558Z,100379.45
2019-01-19T21:41:28.568Z,100379.49
2019-01-19T21:44:04.350Z,100380.03
2019-01-19T21:46:47.035Z,100382.13
2019-01-19T21:49:23.437Z,100384.62
2019-01-19T21:52:18.676Z,100385.86
2019-01-19T21:54:46.279Z,100384.17
2019-01-19T22:04:26.657Z,100378.42
2019-01-19T22:07:02.348Z,100379.91
2019-01-19T22:09:40.780Z,100378.69
2019-01-19T22:12:16.589Z,100383.36
2019-01-19T22:14:53.891Z,100378.73
2019-01-19T22:17:39.489Z,100376.56
2019-01-19T22:20:10.198Z,100382.52
2019-01-19T22:22:37.765Z,100388.12
2019-01-19T22:25:47.205Z,100388.86
2019-01-19T22:28:14.806Z,100391.25
2019-01-19T22:30:42.377Z,100391.25
2019-01-19T22:33:21.046Z,100382.47
2019-01-19T22:35:56.241Z,100382.47
2019-01-19T22:38:26.885Z,100394.61
2019-01-19T22:40:54.396Z,100388.25
2019-01-19T22:43:27.181Z,100393.39
2019-01-19T22:46:23.150Z,100389.20
2019-01-19T22:49:23.550Z,100390.44
2019-01-19T22:52:06.077Z,100384.86
2019-01-19T22:55:07.282Z,100389.53
2019-01-19T22:58:03.815Z,100387.31
2019-01-19T23:01:18.431Z,100386.23
2019-01-19T23:04:14.600Z,100386.23
2019-01-19T23:07:18.461Z,100386.11
2019-01-19T23:09:45.965Z,100382.06
2019-01-19T23:12:16.722Z,100385.98
2019-01-19T23:15:46.024Z,100380.18
2019-01-19T23:18:09.426Z,100389.98
2019-01-19T23:20:48.719Z,100389.98
2019-01-19T23:23:16.301Z,100389.98
2019-01-19T23:25:43.822Z,100384.84
2019-01-19T23:28:20.640Z,100382.69
2019-01-19T23:30:48.216Z,100393.51
2019-01-19T23:33:15.672Z,100391.89
2019-01-19T23:35:43.392Z,100388.93
2019-01-19T23:38:11.086Z,100387.27
2019-01-19T23:40:38.636Z,100389.59
2019-01-19T23:43:20.850Z,100393.48
2019-01-19T23:45:48.551Z,100389.81
2019-01-19T23:48:18.931Z,100384.25
2019-01-19T23:50:46.396Z,100383.45
2019-01-19T23:53:14.142Z,100383.45
2019-01-19T23:55:41.671Z,100387.81
2019-01-19T23:58:09.284Z,100387.81
